sensor_id;sensor_type;location;lat;lon;timestamp;P1;durP1;ratioP1;P2;durP2;ratioP2
16326;SDS011;34812;49.846;9.610;2023-02-25T00:00:02;7.60;;;6.30;;
16326;SDS011;34812;49.846;9.610;2023-02-25T00:01:13;7.13;;;6.40;;
16326;SDS011;34812;49.846;9.610;2023-02-25T00:02:14;7.00;;;6.30;;
16326;SDS011;34812;49.846;9.610;2023-02-25T00:03:16;6.10;;;5.60;;
16326;SDS011;34812;49.846;9.610;2023-02-25T00:04:18;6.90;;;6.23;;
16326;SDS011;34812;49.846;9.610;2023-02-25T00:05:20;8.37;;;6.57;;
16326;SDS011;34812;49.846;9.610;2023-02-25T00:06:21;6.87;;;6.27;;
16326;SDS011;34812;49.846;9.610;2023-02-25T00:07:24;7.93;;;5.50;;
16326;SDS011;34812;49.846;9.610;2023-02-25T00:08:27;6.90;;;6.20;;
16326;SDS011;34812;49.846;9.610;2023-02-25T00:09:29;6.90;;;5.73;;
16326;SDS011;34812;49.846;9.610;2023-02-25T00:10:30;6.93;;;5.40;;
16326;SDS011;34812;49.846;9.610;2023-02-25T00:11:32;6.93;;;6.03;;
16326;SDS011;34812;49.846;9.610;2023-02-25T00:12:33;5.90;;;5.20;;
16326;SDS011;34812;49.846;9.610;2023-02-25T00:13:35;5.43;;;4.93;;
16326;SDS011;34812;49.846;9.610;2023-02-25T00:14:37;5.63;;;5.03;;
16326;SDS011;34812;49.846;9.610;2023-02-25T00:15:39;7.33;;;4.80;;
16326;SDS011;34812;49.846;9.610;2023-02-25T00:16:42;5.50;;;4.97;;
16326;SDS011;34812;49.846;9.610;2023-02-25T00:17:43;6.33;;;4.63;;
16326;SDS011;34812;49.846;9.610;2023-02-25T00:18:44;5.63;;;4.50;;
16326;SDS011;34812;49.846;9.610;2023-02-25T00:19:46;5.53;;;4.20;;
16326;SDS011;34812;49.846;9.610;2023-02-25T00:20:47;5.37;;;4.30;;
16326;SDS011;34812;49.846;9.610;2023-02-25T00:21:49;4.53;;;4.13;;
16326;SDS011;34812;49.846;9.610;2023-02-25T00:22:49;5.13;;;4.63;;
16326;SDS011;34812;49.846;9.610;2023-02-25T00:23:52;6.93;;;4.80;;
16326;SDS011;34812;49.846;9.610;2023-02-25T00:24:53;4.27;;;3.87;;
16326;SDS011;34812;49.846;9.610;2023-02-25T00:25:56;6.40;;;4.30;;
16326;SDS011;34812;49.846;9.610;2023-02-25T00:26:58;5.60;;;4.00;;
16326;SDS011;34812;49.846;9.610;2023-02-25T00:28:00;5.87;;;4.27;;
16326;SDS011;34812;49.846;9.610;2023-02-25T00:29:05;5.53;;;4.20;;
16326;SDS011;34812;49.846;9.610;2023-02-25T00:30:07;4.33;;;3.77;;
16326;SDS011;34812;49.846;9.610;2023-02-25T00:31:10;5.13;;;4.13;;
16326;SDS011;34812;49.846;9.610;2023-02-25T00:32:15;4.93;;;4.07;;
16326;SDS011;34812;49.846;9.610;2023-02-25T00:33:17;5.00;;;4.03;;
16326;SDS011;34812;49.846;9.610;2023-02-25T00:34:18;5.73;;;3.70;;
16326;SDS011;34812;49.846;9.610;2023-02-25T00:35:19;5.07;;;3.90;;
16326;SDS011;34812;49.846;9.610;2023-02-25T00:36:22;4.10;;;3.70;;
16326;SDS011;34812;49.846;9.610;2023-02-25T00:37:24;5.90;;;3.70;;
16326;SDS011;34812;49.846;9.610;2023-02-25T00:38:26;4.90;;;3.97;;
16326;SDS011;34812;49.846;9.610;2023-02-25T00:39:27;5.53;;;3.93;;
16326;SDS011;34812;49.846;9.610;2023-02-25T00:40:42;4.40;;;3.50;;
16326;SDS011;34812;49.846;9.610;2023-02-25T00:41:43;5.83;;;4.33;;
16326;SDS011;34812;49.846;9.610;2023-02-25T00:42:45;4.50;;;4.07;;
16326;SDS011;34812;49.846;9.610;2023-02-25T00:43:47;5.93;;;4.10;;
16326;SDS011;34812;49.846;9.610;2023-02-25T00:44:51;5.23;;;3.47;;
16326;SDS011;34812;49.846;9.610;2023-02-25T00:45:52;6.47;;;4.03;;
16326;SDS011;34812;49.846;9.610;2023-02-25T00:46:53;6.07;;;4.63;;
16326;SDS011;34812;49.846;9.610;2023-02-25T00:47:56;7.67;;;4.20;;
16326;SDS011;34812;49.846;9.610;2023-02-25T00:48:58;5.07;;;4.30;;
16326;SDS011;34812;49.846;9.610;2023-02-25T00:49:59;6.50;;;3.60;;
16326;SDS011;34812;49.846;9.610;2023-02-25T00:51:06;4.83;;;3.40;;
16326;SDS011;34812;49.846;9.610;2023-02-25T00:52:08;5.87;;;3.77;;
16326;SDS011;34812;49.846;9.610;2023-02-25T00:53:10;4.67;;;3.37;;
16326;SDS011;34812;49.846;9.610;2023-02-25T00:54:10;5.07;;;3.63;;
16326;SDS011;34812;49.846;9.610;2023-02-25T00:55:12;8.53;;;3.93;;
16326;SDS011;34812;49.846;9.610;2023-02-25T00:56:13;4.90;;;3.40;;
16326;SDS011;34812;49.846;9.610;2023-02-25T00:57:16;8.40;;;3.77;;
16326;SDS011;34812;49.846;9.610;2023-02-25T00:58:17;5.13;;;3.70;;
16326;SDS011;34812;49.846;9.610;2023-02-25T00:59:20;4.80;;;3.67;;
16326;SDS011;34812;49.846;9.610;2023-02-25T01:00:20;4.07;;;3.77;;
16326;SDS011;34812;49.846;9.610;2023-02-25T01:01:23;6.77;;;4.17;;
16326;SDS011;34812;49.846;9.610;2023-02-25T01:02:25;6.53;;;4.30;;
16326;SDS011;34812;49.846;9.610;2023-02-25T01:03:29;6.77;;;3.77;;
16326;SDS011;34812;49.846;9.610;2023-02-25T01:04:30;6.40;;;3.50;;
16326;SDS011;34812;49.846;9.610;2023-02-25T01:05:32;11.47;;;4.43;;
16326;SDS011;34812;49.846;9.610;2023-02-25T01:06:33;7.43;;;4.43;;
16326;SDS011;34812;49.846;9.610;2023-02-25T01:07:36;11.77;;;4.57;;
16326;SDS011;34812;49.846;9.610;2023-02-25T01:08:38;4.87;;;3.87;;
16326;SDS011;34812;49.846;9.610;2023-02-25T01:09:39;7.47;;;4.00;;
16326;SDS011;34812;49.846;9.610;2023-02-25T01:10:41;9.00;;;4.10;;
16326;SDS011;34812;49.846;9.610;2023-02-25T01:11:43;6.30;;;5.03;;
16326;SDS011;34812;49.846;9.610;2023-02-25T01:12:45;5.77;;;4.13;;
16326;SDS011;34812;49.846;9.610;2023-02-25T01:13:48;5.43;;;3.80;;
16326;SDS011;34812;49.846;9.610;2023-02-25T01:14:49;6.73;;;4.33;;
16326;SDS011;34812;49.846;9.610;2023-02-25T01:15:51;6.03;;;4.10;;
16326;SDS011;34812;49.846;9.610;2023-02-25T01:16:52;6.47;;;4.40;;
16326;SDS011;34812;49.846;9.610;2023-02-25T01:17:56;6.13;;;4.73;;
16326;SDS011;34812;49.846;9.610;2023-02-25T01:19:00;7.73;;;4.33;;
16326;SDS011;34812;49.846;9.610;2023-02-25T01:20:04;9.03;;;4.67;;
16326;SDS011;34812;49.846;9.610;2023-02-25T01:21:13;7.13;;;4.40;;
16326;SDS011;34812;49.846;9.610;2023-02-25T01:22:17;5.37;;;4.17;;
16326;SDS011;34812;49.846;9.610;2023-02-25T01:23:18;7.27;;;4.43;;
16326;SDS011;34812;49.846;9.610;2023-02-25T01:24:20;8.13;;;4.63;;
16326;SDS011;34812;49.846;9.610;2023-02-25T01:25:22;7.30;;;4.67;;
16326;SDS011;34812;49.846;9.610;2023-02-25T01:26:24;7.67;;;4.20;;
16326;SDS011;34812;49.846;9.610;2023-02-25T01:27:26;5.03;;;4.30;;
16326;SDS011;34812;49.846;9.610;2023-02-25T01:28:27;5.60;;;3.87;;
16326;SDS011;34812;49.846;9.610;2023-02-25T01:29:29;9.33;;;4.23;;
16326;SDS011;34812;49.846;9.610;2023-02-25T01:30:34;8.37;;;4.63;;
16326;SDS011;34812;49.846;9.610;2023-02-25T01:31:35;7.83;;;4.90;;
16326;SDS011;34812;49.846;9.610;2023-02-25T01:32:37;7.37;;;4.63;;
16326;SDS011;34812;49.846;9.610;2023-02-25T01:33:38;5.87;;;4.60;;
16326;SDS011;34812;49.846;9.610;2023-02-25T01:34:41;5.70;;;3.80;;
16326;SDS011;34812;49.846;9.610;2023-02-25T01:35:42;7.77;;;4.57;;
16326;SDS011;34812;49.846;9.610;2023-02-25T01:36:44;6.47;;;4.10;;
16326;SDS011;34812;49.846;9.610;2023-02-25T01:37:45;5.13;;;4.00;;
16326;SDS011;34812;49.846;9.610;2023-02-25T01:38:49;5.23;;;3.80;;
16326;SDS011;34812;49.846;9.610;2023-02-25T01:39:50;4.70;;;4.07;;
16326;SDS011;34812;49.846;9.610;2023-02-25T01:40:55;6.17;;;4.30;;
16326;SDS011;34812;49.846;9.610;2023-02-25T01:41:57;7.13;;;4.70;;
16326;SDS011;34812;49.846;9.610;2023-02-25T01:43:03;7.43;;;4.00;;
16326;SDS011;34812;49.846;9.610;2023-02-25T01:44:07;5.53;;;4.47;;
16326;SDS011;34812;49.846;9.610;2023-02-25T01:45:24;6.83;;;3.97;;
16326;SDS011;34812;49.846;9.610;2023-02-25T01:46:32;8.07;;;3.97;;
16326;SDS011;34812;49.846;9.610;2023-02-25T01:47:34;5.93;;;3.70;;
16326;SDS011;34812;49.846;9.610;2023-02-25T01:48:38;6.53;;;4.23;;
16326;SDS011;34812;49.846;9.610;2023-02-25T01:49:42;7.13;;;4.40;;
16326;SDS011;34812;49.846;9.610;2023-02-25T01:50:46;9.40;;;3.70;;
16326;SDS011;34812;49.846;9.610;2023-02-25T01:51:51;7.27;;;4.00;;
16326;SDS011;34812;49.846;9.610;2023-02-25T01:52:56;6.87;;;3.77;;
16326;SDS011;34812;49.846;9.610;2023-02-25T01:54:00;7.37;;;3.87;;
16326;SDS011;34812;49.846;9.610;2023-02-25T01:55:03;5.67;;;4.07;;
16326;SDS011;34812;49.846;9.610;2023-02-25T01:56:06;5.67;;;3.93;;
16326;SDS011;34812;49.846;9.610;2023-02-25T01:57:11;5.07;;;4.10;;
16326;SDS011;34812;49.846;9.610;2023-02-25T01:58:15;8.90;;;3.97;;
16326;SDS011;34812;49.846;9.610;2023-02-25T01:59:17;7.20;;;3.43;;
16326;SDS011;34812;49.846;9.610;2023-02-25T02:00:22;7.30;;;3.90;;
16326;SDS011;34812;49.846;9.610;2023-02-25T02:01:25;9.33;;;4.20;;
16326;SDS011;34812;49.846;9.610;2023-02-25T02:02:32;7.33;;;3.80;;
16326;SDS011;34812;49.846;9.610;2023-02-25T02:03:33;8.07;;;4.03;;
16326;SDS011;34812;49.846;9.610;2023-02-25T02:04:36;6.17;;;3.80;;
16326;SDS011;34812;49.846;9.610;2023-02-25T02:05:41;6.03;;;3.77;;
16326;SDS011;34812;49.846;9.610;2023-02-25T02:06:51;6.90;;;3.77;;
16326;SDS011;34812;49.846;9.610;2023-02-25T02:07:54;8.53;;;4.27;;
16326;SDS011;34812;49.846;9.610;2023-02-25T02:08:58;9.43;;;3.93;;
16326;SDS011;34812;49.846;9.610;2023-02-25T02:10:03;5.50;;;3.87;;
16326;SDS011;34812;49.846;9.610;2023-02-25T02:11:04;7.27;;;3.30;;
16326;SDS011;34812;49.846;9.610;2023-02-25T02:12:07;6.43;;;3.30;;
16326;SDS011;34812;49.846;9.610;2023-02-25T02:13:08;5.43;;;3.83;;
16326;SDS011;34812;49.846;9.610;2023-02-25T02:14:10;8.47;;;4.10;;
16326;SDS011;34812;49.846;9.610;2023-02-25T02:15:13;8.00;;;4.27;;
16326;SDS011;34812;49.846;9.610;2023-02-25T02:16:21;6.30;;;3.90;;
16326;SDS011;34812;49.846;9.610;2023-02-25T02:17:36;5.67;;;3.60;;
16326;SDS011;34812;49.846;9.610;2023-02-25T02:18:42;7.33;;;4.40;;
16326;SDS011;34812;49.846;9.610;2023-02-25T02:19:52;7.27;;;3.73;;
16326;SDS011;34812;49.846;9.610;2023-02-25T02:21:14;8.30;;;3.90;;
16326;SDS011;34812;49.846;9.610;2023-02-25T02:22:29;7.23;;;3.83;;
16326;SDS011;34812;49.846;9.610;2023-02-25T02:25:26;7.90;;;3.60;;
16326;SDS011;34812;49.846;9.610;2023-02-25T02:26:59;5.43;;;3.63;;
16326;SDS011;34812;49.846;9.610;2023-02-25T02:28:11;6.60;;;3.80;;
16326;SDS011;34812;49.846;9.610;2023-02-25T02:31:16;10.10;;;4.33;;
16326;SDS011;34812;49.846;9.610;2023-02-25T02:32:27;9.13;;;4.67;;
16326;SDS011;34812;49.846;9.610;2023-02-25T02:33:35;10.07;;;4.00;;
16326;SDS011;34812;49.846;9.610;2023-02-25T02:34:45;8.23;;;4.40;;
16326;SDS011;34812;49.846;9.610;2023-02-25T02:35:55;6.90;;;4.20;;
16326;SDS011;34812;49.846;9.610;2023-02-25T02:37:02;7.87;;;3.90;;
16326;SDS011;34812;49.846;9.610;2023-02-25T02:38:10;5.03;;;3.50;;
16326;SDS011;34812;49.846;9.610;2023-02-25T02:39:20;6.03;;;3.80;;
16326;SDS011;34812;49.846;9.610;2023-02-25T02:40:34;7.00;;;4.10;;
16326;SDS011;34812;49.846;9.610;2023-02-25T02:41:43;5.73;;;3.47;;
16326;SDS011;34812;49.846;9.610;2023-02-25T02:42:52;7.40;;;3.83;;
16326;SDS011;34812;49.846;9.610;2023-02-25T02:44:04;5.67;;;3.50;;
16326;SDS011;34812;49.846;9.610;2023-02-25T02:45:12;10.93;;;4.17;;
16326;SDS011;34812;49.846;9.610;2023-02-25T02:46:22;17.23;;;3.70;;
16326;SDS011;34812;49.846;9.610;2023-02-25T02:47:26;7.67;;;3.50;;
16326;SDS011;34812;49.846;9.610;2023-02-25T02:48:31;8.63;;;4.00;;
16326;SDS011;34812;49.846;9.610;2023-02-25T02:49:38;11.33;;;4.03;;
16326;SDS011;34812;49.846;9.610;2023-02-25T02:50:44;10.20;;;3.90;;
16326;SDS011;34812;49.846;9.610;2023-02-25T02:51:50;7.53;;;3.20;;
16326;SDS011;34812;49.846;9.610;2023-02-25T02:52:58;8.20;;;4.60;;
16326;SDS011;34812;49.846;9.610;2023-02-25T02:54:05;11.87;;;4.10;;
16326;SDS011;34812;49.846;9.610;2023-02-25T02:55:12;8.33;;;4.53;;
16326;SDS011;34812;49.846;9.610;2023-02-25T02:56:23;9.30;;;4.50;;
16326;SDS011;34812;49.846;9.610;2023-02-25T02:57:25;10.57;;;4.50;;
16326;SDS011;34812;49.846;9.610;2023-02-25T02:58:30;9.37;;;4.10;;
16326;SDS011;34812;49.846;9.610;2023-02-25T02:59:37;14.20;;;4.87;;
16326;SDS011;34812;49.846;9.610;2023-02-25T03:00:43;6.73;;;4.07;;
16326;SDS011;34812;49.846;9.610;2023-02-25T03:01:49;9.33;;;4.90;;
16326;SDS011;34812;49.846;9.610;2023-02-25T03:02:57;9.03;;;4.40;;
16326;SDS011;34812;49.846;9.610;2023-02-25T03:04:03;8.60;;;4.77;;
16326;SDS011;34812;49.846;9.610;2023-02-25T03:05:09;9.83;;;4.47;;
16326;SDS011;34812;49.846;9.610;2023-02-25T03:06:16;7.93;;;4.40;;
16326;SDS011;34812;49.846;9.610;2023-02-25T03:07:20;10.10;;;4.40;;
16326;SDS011;34812;49.846;9.610;2023-02-25T03:08:24;6.53;;;3.87;;
16326;SDS011;34812;49.846;9.610;2023-02-25T03:09:28;11.90;;;4.37;;
16326;SDS011;34812;49.846;9.610;2023-02-25T03:10:33;8.97;;;4.57;;
16326;SDS011;34812;49.846;9.610;2023-02-25T03:11:34;8.00;;;4.63;;
16326;SDS011;34812;49.846;9.610;2023-02-25T03:12:36;9.20;;;4.37;;
16326;SDS011;34812;49.846;9.610;2023-02-25T03:13:38;8.90;;;3.93;;
16326;SDS011;34812;49.846;9.610;2023-02-25T03:14:40;8.97;;;4.77;;
16326;SDS011;34812;49.846;9.610;2023-02-25T03:15:41;8.37;;;4.67;;
16326;SDS011;34812;49.846;9.610;2023-02-25T03:16:48;9.77;;;4.27;;
16326;SDS011;34812;49.846;9.610;2023-02-25T03:17:54;7.60;;;3.83;;
16326;SDS011;34812;49.846;9.610;2023-02-25T03:19:00;8.13;;;4.50;;
16326;SDS011;34812;49.846;9.610;2023-02-25T03:20:05;5.63;;;3.77;;
16326;SDS011;34812;49.846;9.610;2023-02-25T03:21:14;10.13;;;4.17;;
16326;SDS011;34812;49.846;9.610;2023-02-25T03:22:21;6.20;;;4.20;;
16326;SDS011;34812;49.846;9.610;2023-02-25T03:23:27;7.20;;;3.90;;
16326;SDS011;34812;49.846;9.610;2023-02-25T03:24:33;7.90;;;4.63;;
16326;SDS011;34812;49.846;9.610;2023-02-25T03:25:42;9.10;;;4.37;;
16326;SDS011;34812;49.846;9.610;2023-02-25T03:26:46;8.23;;;4.20;;
16326;SDS011;34812;49.846;9.610;2023-02-25T03:27:50;8.20;;;4.10;;
16326;SDS011;34812;49.846;9.610;2023-02-25T03:28:55;9.77;;;4.57;;
16326;SDS011;34812;49.846;9.610;2023-02-25T03:29:59;8.93;;;3.90;;
16326;SDS011;34812;49.846;9.610;2023-02-25T03:31:06;5.20;;;3.70;;
16326;SDS011;34812;49.846;9.610;2023-02-25T03:32:15;8.07;;;3.60;;
16326;SDS011;34812;49.846;9.610;2023-02-25T03:33:19;11.00;;;4.23;;
16326;SDS011;34812;49.846;9.610;2023-02-25T03:34:27;7.80;;;4.33;;
16326;SDS011;34812;49.846;9.610;2023-02-25T03:35:31;8.13;;;4.53;;
16326;SDS011;34812;49.846;9.610;2023-02-25T03:36:37;10.07;;;4.57;;
16326;SDS011;34812;49.846;9.610;2023-02-25T03:37:41;11.93;;;4.13;;
16326;SDS011;34812;49.846;9.610;2023-02-25T03:38:46;6.80;;;4.30;;
16326;SDS011;34812;49.846;9.610;2023-02-25T03:39:51;6.63;;;3.73;;
16326;SDS011;34812;49.846;9.610;2023-02-25T03:40:56;8.70;;;4.23;;
16326;SDS011;34812;49.846;9.610;2023-02-25T03:42:01;16.53;;;4.53;;
16326;SDS011;34812;49.846;9.610;2023-02-25T03:43:05;10.93;;;4.17;;
16326;SDS011;34812;49.846;9.610;2023-02-25T03:44:10;9.93;;;4.37;;
16326;SDS011;34812;49.846;9.610;2023-02-25T03:45:17;8.97;;;4.67;;
16326;SDS011;34812;49.846;9.610;2023-02-25T03:46:20;10.07;;;4.30;;
16326;SDS011;34812;49.846;9.610;2023-02-25T03:47:25;9.07;;;3.80;;
16326;SDS011;34812;49.846;9.610;2023-02-25T03:48:29;11.07;;;4.77;;
16326;SDS011;34812;49.846;9.610;2023-02-25T03:49:36;7.40;;;4.33;;
16326;SDS011;34812;49.846;9.610;2023-02-25T03:50:46;7.00;;;3.97;;
16326;SDS011;34812;49.846;9.610;2023-02-25T03:51:52;8.83;;;4.57;;
16326;SDS011;34812;49.846;9.610;2023-02-25T03:52:55;10.20;;;5.47;;
16326;SDS011;34812;49.846;9.610;2023-02-25T03:54:17;5.63;;;4.07;;
16326;SDS011;34812;49.846;9.610;2023-02-25T03:55:19;7.90;;;4.30;;
16326;SDS011;34812;49.846;9.610;2023-02-25T03:56:21;9.67;;;4.00;;
16326;SDS011;34812;49.846;9.610;2023-02-25T03:57:23;8.83;;;4.67;;
16326;SDS011;34812;49.846;9.610;2023-02-25T03:58:28;14.47;;;5.10;;
16326;SDS011;34812;49.846;9.610;2023-02-25T03:59:30;6.00;;;3.50;;
16326;SDS011;34812;49.846;9.610;2023-02-25T04:00:32;8.20;;;4.50;;
16326;SDS011;34812;49.846;9.610;2023-02-25T04:01:33;9.23;;;4.90;;
16326;SDS011;34812;49.846;9.610;2023-02-25T04:02:38;10.50;;;4.70;;
16326;SDS011;34812;49.846;9.610;2023-02-25T04:03:40;9.07;;;3.80;;
16326;SDS011;34812;49.846;9.610;2023-02-25T04:04:43;7.63;;;3.97;;
16326;SDS011;34812;49.846;9.610;2023-02-25T04:05:44;10.93;;;4.73;;
16326;SDS011;34812;49.846;9.610;2023-02-25T04:06:45;9.47;;;4.37;;
16326;SDS011;34812;49.846;9.610;2023-02-25T04:07:47;11.40;;;4.70;;
16326;SDS011;34812;49.846;9.610;2023-02-25T04:08:49;14.50;;;4.73;;
16326;SDS011;34812;49.846;9.610;2023-02-25T04:09:50;9.03;;;4.80;;
16326;SDS011;34812;49.846;9.610;2023-02-25T04:10:52;8.13;;;3.80;;
16326;SDS011;34812;49.846;9.610;2023-02-25T04:11:53;7.63;;;4.10;;
16326;SDS011;34812;49.846;9.610;2023-02-25T04:12:56;7.83;;;4.30;;
16326;SDS011;34812;49.846;9.610;2023-02-25T04:13:57;8.53;;;4.23;;
16326;SDS011;34812;49.846;9.610;2023-02-25T04:14:59;9.53;;;3.87;;
16326;SDS011;34812;49.846;9.610;2023-02-25T04:16:00;9.80;;;3.77;;
16326;SDS011;34812;49.846;9.610;2023-02-25T04:17:01;7.70;;;3.97;;
16326;SDS011;34812;49.846;9.610;2023-02-25T04:18:06;6.50;;;3.37;;
16326;SDS011;34812;49.846;9.610;2023-02-25T04:19:08;9.40;;;3.70;;
16326;SDS011;34812;49.846;9.610;2023-02-25T04:20:09;12.63;;;4.27;;
16326;SDS011;34812;49.846;9.610;2023-02-25T04:21:20;12.53;;;4.30;;
16326;SDS011;34812;49.846;9.610;2023-02-25T04:22:26;8.53;;;3.63;;
16326;SDS011;34812;49.846;9.610;2023-02-25T04:23:28;11.27;;;4.03;;
16326;SDS011;34812;49.846;9.610;2023-02-25T04:24:28;6.40;;;3.37;;
16326;SDS011;34812;49.846;9.610;2023-02-25T04:25:30;6.47;;;3.73;;
16326;SDS011;34812;49.846;9.610;2023-02-25T04:26:31;7.43;;;3.63;;
16326;SDS011;34812;49.846;9.610;2023-02-25T04:27:33;6.97;;;3.93;;
16326;SDS011;34812;49.846;9.610;2023-02-25T04:28:33;12.27;;;3.90;;
16326;SDS011;34812;49.846;9.610;2023-02-25T04:29:35;9.10;;;3.57;;
16326;SDS011;34812;49.846;9.610;2023-02-25T04:30:36;8.10;;;3.63;;
16326;SDS011;34812;49.846;9.610;2023-02-25T04:31:38;6.77;;;3.37;;
16326;SDS011;34812;49.846;9.610;2023-02-25T04:32:40;6.43;;;3.37;;
16326;SDS011;34812;49.846;9.610;2023-02-25T04:33:42;15.73;;;4.43;;
16326;SDS011;34812;49.846;9.610;2023-02-25T04:34:48;7.73;;;3.87;;
16326;SDS011;34812;49.846;9.610;2023-02-25T04:35:49;9.13;;;4.13;;
16326;SDS011;34812;49.846;9.610;2023-02-25T04:36:51;7.10;;;3.80;;
16326;SDS011;34812;49.846;9.610;2023-02-25T04:37:52;6.40;;;3.80;;
16326;SDS011;34812;49.846;9.610;2023-02-25T04:38:54;9.33;;;4.07;;
16326;SDS011;34812;49.846;9.610;2023-02-25T04:39:56;6.67;;;3.63;;
16326;SDS011;34812;49.846;9.610;2023-02-25T04:40:58;9.10;;;3.50;;
16326;SDS011;34812;49.846;9.610;2023-02-25T04:41:59;8.37;;;3.70;;
16326;SDS011;34812;49.846;9.610;2023-02-25T04:43:00;9.23;;;3.73;;
16326;SDS011;34812;49.846;9.610;2023-02-25T04:44:02;10.13;;;4.00;;
16326;SDS011;34812;49.846;9.610;2023-02-25T04:45:05;9.67;;;4.00;;
16326;SDS011;34812;49.846;9.610;2023-02-25T04:46:07;7.47;;;3.67;;
16326;SDS011;34812;49.846;9.610;2023-02-25T04:47:10;9.23;;;4.03;;
16326;SDS011;34812;49.846;9.610;2023-02-25T04:48:11;10.80;;;3.37;;
16326;SDS011;34812;49.846;9.610;2023-02-25T04:49:14;9.57;;;3.93;;
16326;SDS011;34812;49.846;9.610;2023-02-25T04:50:15;6.17;;;3.57;;
16326;SDS011;34812;49.846;9.610;2023-02-25T04:51:17;6.87;;;3.53;;
16326;SDS011;34812;49.846;9.610;2023-02-25T04:52:18;12.70;;;3.67;;
16326;SDS011;34812;49.846;9.610;2023-02-25T04:53:19;6.83;;;4.03;;
16326;SDS011;34812;49.846;9.610;2023-02-25T04:54:20;9.43;;;4.10;;
16326;SDS011;34812;49.846;9.610;2023-02-25T04:55:22;8.20;;;4.20;;
16326;SDS011;34812;49.846;9.610;2023-02-25T04:56:23;7.07;;;3.37;;
16326;SDS011;34812;49.846;9.610;2023-02-25T04:57:25;6.43;;;3.27;;
16326;SDS011;34812;49.846;9.610;2023-02-25T04:58:26;7.20;;;3.73;;
16326;SDS011;34812;49.846;9.610;2023-02-25T04:59:27;7.90;;;3.60;;
16326;SDS011;34812;49.846;9.610;2023-02-25T05:00:28;9.13;;;4.10;;
16326;SDS011;34812;49.846;9.610;2023-02-25T05:01:30;11.40;;;4.00;;
16326;SDS011;34812;49.846;9.610;2023-02-25T05:02:31;11.13;;;4.67;;
16326;SDS011;34812;49.846;9.610;2023-02-25T05:03:33;9.00;;;4.00;;
16326;SDS011;34812;49.846;9.610;2023-02-25T05:04:36;7.30;;;3.97;;
16326;SDS011;34812;49.846;9.610;2023-02-25T05:05:38;9.70;;;4.70;;
16326;SDS011;34812;49.846;9.610;2023-02-25T05:06:40;9.47;;;4.10;;
16326;SDS011;34812;49.846;9.610;2023-02-25T05:07:41;9.97;;;4.00;;
16326;SDS011;34812;49.846;9.610;2023-02-25T05:08:42;9.87;;;3.73;;
16326;SDS011;34812;49.846;9.610;2023-02-25T05:09:44;8.00;;;4.07;;
16326;SDS011;34812;49.846;9.610;2023-02-25T05:10:45;9.60;;;4.20;;
16326;SDS011;34812;49.846;9.610;2023-02-25T05:11:47;11.77;;;4.30;;
16326;SDS011;34812;49.846;9.610;2023-02-25T05:12:48;12.53;;;4.43;;
16326;SDS011;34812;49.846;9.610;2023-02-25T05:13:49;10.70;;;4.30;;
16326;SDS011;34812;49.846;9.610;2023-02-25T05:14:51;8.77;;;4.17;;
16326;SDS011;34812;49.846;9.610;2023-02-25T05:16:01;9.93;;;5.13;;
16326;SDS011;34812;49.846;9.610;2023-02-25T05:17:03;10.80;;;3.83;;
16326;SDS011;34812;49.846;9.610;2023-02-25T05:18:05;6.67;;;3.80;;
16326;SDS011;34812;49.846;9.610;2023-02-25T05:19:06;9.47;;;4.10;;
16326;SDS011;34812;49.846;9.610;2023-02-25T05:20:09;8.70;;;3.80;;
16326;SDS011;34812;49.846;9.610;2023-02-25T05:21:12;11.30;;;4.20;;
16326;SDS011;34812;49.846;9.610;2023-02-25T05:22:15;8.70;;;4.20;;
16326;SDS011;34812;49.846;9.610;2023-02-25T05:23:16;9.27;;;4.03;;
16326;SDS011;34812;49.846;9.610;2023-02-25T05:24:18;11.50;;;4.27;;
16326;SDS011;34812;49.846;9.610;2023-02-25T05:25:19;9.47;;;4.20;;
16326;SDS011;34812;49.846;9.610;2023-02-25T05:26:22;9.60;;;4.07;;
16326;SDS011;34812;49.846;9.610;2023-02-25T05:27:23;9.70;;;4.10;;
16326;SDS011;34812;49.846;9.610;2023-02-25T05:28:25;12.53;;;4.47;;
16326;SDS011;34812;49.846;9.610;2023-02-25T05:29:26;8.87;;;3.90;;
16326;SDS011;34812;49.846;9.610;2023-02-25T05:30:28;10.80;;;4.37;;
16326;SDS011;34812;49.846;9.610;2023-02-25T05:31:28;10.83;;;4.57;;
16326;SDS011;34812;49.846;9.610;2023-02-25T05:32:30;8.37;;;4.20;;
16326;SDS011;34812;49.846;9.610;2023-02-25T05:33:31;7.33;;;3.90;;
16326;SDS011;34812;49.846;9.610;2023-02-25T05:34:33;8.97;;;3.93;;
16326;SDS011;34812;49.846;9.610;2023-02-25T05:35:37;8.17;;;3.83;;
16326;SDS011;34812;49.846;9.610;2023-02-25T05:36:39;9.27;;;4.10;;
16326;SDS011;34812;49.846;9.610;2023-02-25T05:37:40;8.23;;;4.07;;
16326;SDS011;34812;49.846;9.610;2023-02-25T05:38:42;8.87;;;4.13;;
16326;SDS011;34812;49.846;9.610;2023-02-25T05:39:44;10.23;;;4.37;;
16326;SDS011;34812;49.846;9.610;2023-02-25T05:40:45;6.33;;;3.90;;
16326;SDS011;34812;49.846;9.610;2023-02-25T05:41:46;10.30;;;4.30;;
16326;SDS011;34812;49.846;9.610;2023-02-25T05:42:48;6.80;;;3.83;;
16326;SDS011;34812;49.846;9.610;2023-02-25T05:43:49;7.83;;;3.83;;
16326;SDS011;34812;49.846;9.610;2023-02-25T05:44:51;9.00;;;4.10;;
16326;SDS011;34812;49.846;9.610;2023-02-25T05:45:52;10.03;;;4.03;;
16326;SDS011;34812;49.846;9.610;2023-02-25T05:46:54;9.47;;;3.83;;
16326;SDS011;34812;49.846;9.610;2023-02-25T05:47:56;11.70;;;4.63;;
16326;SDS011;34812;49.846;9.610;2023-02-25T05:48:58;11.40;;;4.67;;
16326;SDS011;34812;49.846;9.610;2023-02-25T05:49:59;6.40;;;4.60;;
16326;SDS011;34812;49.846;9.610;2023-02-25T05:51:02;9.93;;;4.47;;
16326;SDS011;34812;49.846;9.610;2023-02-25T05:52:07;9.53;;;4.33;;
16326;SDS011;34812;49.846;9.610;2023-02-25T05:53:09;7.73;;;3.97;;
16326;SDS011;34812;49.846;9.610;2023-02-25T05:54:10;10.40;;;4.27;;
16326;SDS011;34812;49.846;9.610;2023-02-25T05:55:12;9.70;;;4.23;;
16326;SDS011;34812;49.846;9.610;2023-02-25T05:56:13;13.70;;;4.67;;
16326;SDS011;34812;49.846;9.610;2023-02-25T05:57:16;6.77;;;4.23;;
16326;SDS011;34812;49.846;9.610;2023-02-25T05:58:17;10.03;;;4.40;;
16326;SDS011;34812;49.846;9.610;2023-02-25T05:59:19;9.70;;;4.27;;
16326;SDS011;34812;49.846;9.610;2023-02-25T06:00:20;5.83;;;4.17;;
16326;SDS011;34812;49.846;9.610;2023-02-25T06:01:23;10.77;;;4.43;;
16326;SDS011;34812;49.846;9.610;2023-02-25T06:02:26;10.47;;;4.73;;
16326;SDS011;34812;49.846;9.610;2023-02-25T06:03:28;7.27;;;4.03;;
16326;SDS011;34812;49.846;9.610;2023-02-25T06:04:29;9.63;;;4.20;;
16326;SDS011;34812;49.846;9.610;2023-02-25T06:05:31;9.50;;;4.23;;
16326;SDS011;34812;49.846;9.610;2023-02-25T06:06:33;11.93;;;4.70;;
16326;SDS011;34812;49.846;9.610;2023-02-25T06:07:35;8.53;;;4.87;;
16326;SDS011;34812;49.846;9.610;2023-02-25T06:08:35;10.23;;;4.47;;
16326;SDS011;34812;49.846;9.610;2023-02-25T06:09:37;11.00;;;4.23;;
16326;SDS011;34812;49.846;9.610;2023-02-25T06:10:39;13.93;;;4.97;;
16326;SDS011;34812;49.846;9.610;2023-02-25T06:11:41;8.97;;;4.70;;
16326;SDS011;34812;49.846;9.610;2023-02-25T06:12:42;7.97;;;5.57;;
16326;SDS011;34812;49.846;9.610;2023-02-25T06:13:43;7.97;;;4.30;;
16326;SDS011;34812;49.846;9.610;2023-02-25T06:14:46;9.13;;;4.33;;
16326;SDS011;34812;49.846;9.610;2023-02-25T06:15:48;11.60;;;5.20;;
16326;SDS011;34812;49.846;9.610;2023-02-25T06:16:48;11.57;;;4.93;;
16326;SDS011;34812;49.846;9.610;2023-02-25T06:17:50;12.30;;;5.00;;
16326;SDS011;34812;49.846;9.610;2023-02-25T06:18:51;9.70;;;4.90;;
16326;SDS011;34812;49.846;9.610;2023-02-25T06:19:53;9.47;;;4.67;;
16326;SDS011;34812;49.846;9.610;2023-02-25T06:20:54;11.90;;;5.60;;
16326;SDS011;34812;49.846;9.610;2023-02-25T06:21:57;9.37;;;4.13;;
16326;SDS011;34812;49.846;9.610;2023-02-25T06:22:58;7.40;;;4.20;;
16326;SDS011;34812;49.846;9.610;2023-02-25T06:23:59;10.83;;;5.23;;
16326;SDS011;34812;49.846;9.610;2023-02-25T06:25:02;9.07;;;4.77;;